Time;durP1;ratioP1;P1;durP2;ratioP2;P2;SDS_P1;SDS_P2;PMS_P1;PMS_P2;Temp;Humidity;BMP_temperature;BMP_pressure;BME280_temperature;BME280_humidity;BME280_pressure;Samples;Min_cycle;Max_cycle;Signal;HPM_P1;HPM_P2
2023/05/18 00:00:54;;;;;;;8.55;2.47;;;12.40;99.90;;;;;;5071450;28;20056;-61
2023/05/18 00:03:21;;;;;;;13.82;2.55;;;12.40;99.90;;;;;;5056278;28;20491;-60
2023/05/18 00:05:48;;;;;;;17.10;3.85;;;12.30;99.90;;;;;;5070989;28;20060;-60
2023/05/18 00:08:15;;;;;;;15.00;3.63;;;12.30;99.90;;;;;;5074962;28;20415;-61
2023/05/18 00:10:42;;;;;;;10.73;3.13;;;12.30;99.90;;;;;;5067475;28;20502;-61
2023/05/18 00:13:09;;;;;;;8.73;3.20;;;12.30;99.90;;;;;;5073334;28;20036;-60
2023/05/18 00:15:36;;;;;;;16.30;3.85;;;12.30;99.90;;;;;;5067970;28;20499;-61
2023/05/18 00:18:02;;;;;;;15.88;3.88;;;12.30;99.90;;;;;;5069060;28;20086;-60
2023/05/18 00:20:30;;;;;;;13.02;3.72;;;12.30;99.90;;;;;;5069663;28;20047;-61
2023/05/18 00:22:57;;;;;;;11.63;3.38;;;12.30;99.90;;;;;;5069323;28;20044;-62
2023/05/18 00:25:23;;;;;;;17.73;3.80;;;12.30;99.90;;;;;;5069912;28;20037;-60
2023/05/18 00:27:50;;;;;;;12.13;3.17;;;12.30;99.90;;;;;;5068765;28;20044;-60
2023/05/18 00:30:17;;;;;;;13.13;2.47;;;12.30;99.90;;;;;;5070102;28;20041;-60
2023/05/18 00:32:44;;;;;;;14.68;2.67;;;12.30;99.90;;;;;;5068721;28;20040;-62
2023/05/18 00:35:11;;;;;;;12.23;3.15;;;12.30;99.90;;;;;;5068596;28;20504;-61
2023/05/18 00:37:38;;;;;;;12.40;2.83;;;12.30;99.90;;;;;;5074970;28;20499;-61
2023/05/18 00:40:05;;;;;;;14.60;2.83;;;12.30;99.90;;;;;;5069569;28;20086;-61
2023/05/18 00:42:32;;;;;;;14.63;3.83;;;12.30;99.90;;;;;;5069409;28;20052;-61
2023/05/18 00:44:59;;;;;;;19.40;3.03;;;12.20;99.90;;;;;;5068901;28;20048;-61
2023/05/18 00:47:26;;;;;;;12.95;3.08;;;12.20;99.90;;;;;;5068983;28;20094;-61
2023/05/18 00:49:53;;;;;;;12.23;2.67;;;12.20;99.90;;;;;;5068972;28;20130;-61
2023/05/18 00:52:20;;;;;;;13.80;2.72;;;12.10;99.90;;;;;;5069510;28;20098;-61
2023/05/18 00:54:47;;;;;;;16.30;3.65;;;12.10;99.90;;;;;;5068544;28;20126;-62
2023/05/18 00:57:14;;;;;;;10.57;3.63;;;12.10;99.90;;;;;;5063209;28;20392;-61
2023/05/18 00:59:41;;;;;;;9.32;2.33;;;12.10;99.90;;;;;;5072214;28;20119;-62
2023/05/18 01:02:08;;;;;;;11.82;2.78;;;12.10;99.90;;;;;;4707631;28;10000625;-61
2023/05/18 01:04:36;;;;;;;13.93;3.72;;;12.00;99.90;;;;;;5064636;28;20473;-62
2023/05/18 01:07:05;;;;;;;15.02;3.42;;;11.90;99.90;;;;;;5067883;28;20106;-60
2023/05/18 01:09:32;;;;;;;13.50;4.28;;;11.90;99.90;;;;;;5042228;28;20458;-61
2023/05/18 01:12:04;;;;;;;15.18;5.57;;;11.90;99.90;;;;;;5068986;28;20044;-61
2023/05/18 01:14:53;;;;;;;10.80;2.78;;;12.00;99.90;;;;;;5068074;28;20083;-60
2023/05/18 01:17:38;;;;;;;13.57;3.00;;;11.90;99.90;;;;;;5067076;28;20048;-61
2023/05/18 01:20:22;;;;;;;7.60;2.92;;;12.00;99.90;;;;;;5065608;28;20411;-62
2023/05/18 01:23:19;;;;;;;9.57;2.47;;;11.90;99.90;;;;;;5078121;28;20167;-61
2023/05/18 01:25:53;;;;;;;17.38;3.00;;;11.90;99.90;;;;;;5062280;28;20052;-61
2023/05/18 01:28:31;;;;;;;11.77;2.90;;;11.80;99.90;;;;;;5081431;28;20044;-60
2023/05/18 01:30:58;;;;;;;12.52;3.00;;;11.80;99.90;;;;;;5071215;28;20117;-60
2023/05/18 01:33:25;;;;;;;11.60;2.92;;;11.80;99.90;;;;;;5067868;28;20041;-61
2023/05/18 01:35:52;;;;;;;10.48;2.80;;;11.90;99.90;;;;;;5067777;28;20044;-61
2023/05/18 01:38:21;;;;;;;13.85;3.08;;;11.90;99.90;;;;;;5068694;28;20194;-61
2023/05/18 01:40:57;;;;;;;12.07;3.70;;;11.90;99.90;;;;;;5073305;28;20036;-61
2023/05/18 01:43:32;;;;;;;13.15;2.80;;;11.90;99.90;;;;;;5068361;28;20491;-61
2023/05/18 01:46:33;;;;;;;8.23;2.67;;;11.90;99.90;;;;;;5060536;28;20578;-60
2023/05/18 01:49:06;;;;;;;11.38;3.22;;;11.90;99.90;;;;;;5063719;28;20052;-61
2023/05/18 01:51:34;;;;;;;14.85;3.00;;;11.80;99.90;;;;;;5062585;28;20182;-61
2023/05/18 01:54:06;;;;;;;11.07;2.72;;;11.70;99.90;;;;;;5052518;28;20052;-61
2023/05/18 01:56:33;;;;;;;10.10;2.20;;;11.50;99.90;;;;;;5045824;28;20054;-61
2023/05/18 01:59:00;;;;;;;9.40;3.03;;;11.60;99.90;;;;;;5048957;28;20056;-61
2023/05/18 02:01:26;;;;;;;8.57;2.95;;;11.60;99.90;;;;;;5067578;28;20040;-60
2023/05/18 02:03:53;;;;;;;10.13;2.45;;;11.60;99.90;;;;;;5066268;28;20094;-61
2023/05/18 02:06:20;;;;;;;15.05;3.47;;;11.60;99.90;;;;;;5066627;28;20056;-61
2023/05/18 02:08:47;;;;;;;9.52;2.83;;;11.60;99.90;;;;;;5066311;28;20091;-61
2023/05/18 02:11:14;;;;;;;10.50;2.70;;;11.70;99.90;;;;;;5071487;28;20106;-61
2023/05/18 02:13:41;;;;;;;12.48;3.72;;;11.60;99.90;;;;;;5065977;28;20053;-62
2023/05/18 02:16:09;;;;;;;9.18;2.53;;;11.50;99.90;;;;;;5065754;28;20091;-60
2023/05/18 02:18:37;;;;;;;13.85;5.43;;;11.50;99.90;;;;;;5066650;28;20102;-60
2023/05/18 02:21:04;;;;;;;12.75;2.67;;;11.40;99.90;;;;;;5066377;28;20055;-61
2023/05/18 02:23:31;;;;;;;12.98;2.60;;;11.50;99.90;;;;;;5067331;28;20048;-60
2023/05/18 02:25:57;;;;;;;10.30;2.90;;;11.50;99.90;;;;;;5066782;28;20483;-61
2023/05/18 02:28:24;;;;;;;9.25;2.65;;;11.50;99.90;;;;;;5067071;28;20049;-62
2023/05/18 02:30:51;;;;;;;16.33;2.95;;;11.60;99.90;;;;;;5066769;28;20083;-62
2023/05/18 02:33:18;;;;;;;9.98;2.13;;;11.60;99.90;;;;;;5066455;28;20083;-61
2023/05/18 02:35:45;;;;;;;13.50;2.83;;;11.50;99.90;;;;;;5066547;28;20131;-61
2023/05/18 02:38:12;;;;;;;13.27;2.38;;;11.50;99.90;;;;;;5067472;28;20044;-61
2023/05/18 02:40:39;;;;;;;8.27;2.60;;;11.50;99.90;;;;;;5066213;28;20036;-61
2023/05/18 02:43:05;;;;;;;11.23;3.15;;;11.50;99.90;;;;;;5067245;28;20048;-60
2023/05/18 02:45:32;;;;;;;15.13;4.20;;;11.50;99.90;;;;;;5066924;28;20048;-61
2023/05/18 02:47:59;;;;;;;8.05;2.63;;;11.40;99.90;;;;;;5066262;28;20483;-62
2023/05/18 02:50:26;;;;;;;8.43;2.08;;;11.50;99.90;;;;;;5067378;28;20098;-61
2023/05/18 02:52:54;;;;;;;14.18;3.20;;;11.50;99.90;;;;;;5067251;28;20055;-60
2023/05/18 02:55:21;;;;;;;11.25;3.13;;;11.50;99.90;;;;;;5067555;28;20048;-61
2023/05/18 02:57:48;;;;;;;12.15;2.30;;;11.50;99.90;;;;;;5066026;28;20048;-60
2023/05/18 03:00:16;;;;;;;14.13;2.65;;;11.50;99.90;;;;;;5067897;28;20076;-60
2023/05/18 03:02:47;;;;;;;6.82;2.33;;;11.50;99.90;;;;;;5065813;28;20521;-61
2023/05/18 03:05:15;;;;;;;10.18;2.40;;;11.60;99.90;;;;;;5054704;28;20500;-60
2023/05/18 03:07:49;;;;;;;10.60;2.45;;;11.60;99.90;;;;;;5065913;28;20170;-60
2023/05/18 03:10:16;;;;;;;15.07;3.05;;;11.60;99.90;;;;;;5066799;28;20173;-62
2023/05/18 03:12:43;;;;;;;7.47;2.55;;;11.40;99.90;;;;;;5065835;28;20083;-62
2023/05/18 03:15:10;;;;;;;16.88;2.33;;;11.50;99.90;;;;;;5066648;28;20160;-62
2023/05/18 03:17:37;;;;;;;12.65;2.78;;;11.40;99.90;;;;;;5066315;28;20048;-62
2023/05/18 03:20:04;;;;;;;13.35;2.50;;;11.40;99.90;;;;;;5066706;28;20406;-62
2023/05/18 03:22:32;;;;;;;7.88;2.25;;;11.30;99.90;;;;;;5066872;28;20036;-62
2023/05/18 03:25:01;;;;;;;12.90;2.75;;;11.30;99.90;;;;;;5065844;28;20369;-62
2023/05/18 03:27:27;;;;;;;16.45;2.95;;;11.30;99.90;;;;;;5066340;28;20118;-62
2023/05/18 03:29:56;;;;;;;10.27;2.42;;;11.30;99.90;;;;;;5066263;28;20106;-61
2023/05/18 03:32:27;;;;;;;9.98;2.30;;;11.30;99.90;;;;;;5051207;28;20041;-61
2023/05/18 03:34:54;;;;;;;12.07;2.35;;;11.10;99.90;;;;;;5059069;28;20153;-61
2023/05/18 03:37:21;;;;;;;10.13;3.00;;;11.00;99.90;;;;;;5078730;28;20044;-63
2023/05/18 03:39:47;;;;;;;12.73;2.90;;;10.90;99.90;;;;;;5066627;28;20114;-60
2023/05/18 03:42:14;;;;;;;20.25;2.80;;;10.90;99.90;;;;;;5066553;28;20080;-60
2023/05/18 03:44:41;;;;;;;12.18;2.97;;;11.00;99.90;;;;;;5073530;28;20040;-61
2023/05/18 03:47:08;;;;;;;18.33;4.10;;;11.00;99.90;;;;;;5069792;28;20049;-60
2023/05/18 03:49:34;;;;;;;16.50;3.38;;;11.00;99.90;;;;;;5069308;28;20045;-61
2023/05/18 03:52:03;;;;;;;11.75;2.40;;;11.10;99.90;;;;;;5070615;28;20445;-60
2023/05/18 03:54:29;;;;;;;14.23;2.80;;;11.00;99.90;;;;;;5069835;28;20450;-61
2023/05/18 03:56:56;;;;;;;13.55;3.92;;;10.90;99.90;;;;;;5069946;28;20048;-60
2023/05/18 03:59:23;;;;;;;10.00;3.40;;;10.90;99.90;;;;;;5070316;28;20041;-61
2023/05/18 04:01:52;;;;;;;9.25;2.85;;;10.80;99.90;;;;;;5073994;28;20041;-61
2023/05/18 04:04:22;;;;;;;10.27;3.13;;;10.80;99.90;;;;;;5067459;28;20052;-61
2023/05/18 04:06:52;;;;;;;14.10;2.63;;;10.80;99.90;;;;;;5068325;28;20053;-61
2023/05/18 04:09:20;;;;;;;14.07;2.85;;;10.80;99.90;;;;;;5069637;28;20122;-61
2023/05/18 04:11:47;;;;;;;5.30;2.20;;;10.80;99.90;;;;;;5069809;28;20048;-61
2023/05/18 04:14:15;;;;;;;6.68;2.42;;;10.70;99.90;;;;;;5070946;28;20048;-61
2023/05/18 04:16:42;;;;;;;12.73;3.10;;;10.60;99.90;;;;;;5069091;28;20045;-60
2023/05/18 04:19:09;;;;;;;10.60;3.20;;;10.60;99.90;;;;;;5069729;28;20106;-60
2023/05/18 04:21:36;;;;;;;11.65;3.47;;;10.60;99.90;;;;;;5069643;28;20079;-60
2023/05/18 04:24:04;;;;;;;15.55;3.28;;;10.60;99.90;;;;;;5069563;28;20323;-61
2023/05/18 04:26:33;;;;;;;8.95;2.35;;;10.60;99.90;;;;;;5062137;28;20606;-60
2023/05/18 04:29:00;;;;;;;10.65;3.08;;;10.60;99.90;;;;;;5055021;28;20044;-60
2023/05/18 04:31:28;;;;;;;15.40;3.10;;;10.60;99.90;;;;;;5062111;28;20125;-60
2023/05/18 04:33:56;;;;;;;11.25;2.65;;;10.50;99.90;;;;;;5069127;28;20057;-60
2023/05/18 04:36:24;;;;;;;7.80;2.78;;;10.50;99.90;;;;;;5060535;28;20048;-61
2023/05/18 04:38:51;;;;;;;14.75;3.13;;;10.50;99.90;;;;;;5069019;28;20044;-60
2023/05/18 04:41:21;;;;;;;11.77;2.58;;;10.50;99.90;;;;;;5069022;28;20052;-60
2023/05/18 04:43:51;;;;;;;17.02;2.72;;;10.50;99.90;;;;;;5074585;28;20048;-61
2023/05/18 04:46:18;;;;;;;7.97;2.65;;;10.50;99.90;;;;;;5069190;28;20052;-61
2023/05/18 04:48:48;;;;;;;12.77;2.88;;;10.40;99.90;;;;;;5055610;28;20040;-61
2023/05/18 04:51:20;;;;;;;7.95;3.45;;;10.30;99.90;;;;;;5068622;28;20537;-61
2023/05/18 04:53:49;;;;;;;11.60;2.45;;;10.20;99.90;;;;;;5082577;28;20040;-60
2023/05/18 04:56:16;;;;;;;12.50;3.03;;;10.20;99.90;;;;;;5068513;28;20044;-60
2023/05/18 04:58:52;;;;;;;8.65;3.00;;;10.20;99.90;;;;;;5068786;28;20052;-61
2023/05/18 05:01:18;;;;;;;11.85;4.00;;;10.20;99.90;;;;;;5067431;28;20523;-60
2023/05/18 05:03:45;;;;;;;10.52;2.90;;;10.20;99.90;;;;;;5067919;28;20135;-61
2023/05/18 05:06:12;;;;;;;19.35;3.03;;;10.20;99.90;;;;;;5068515;28;20059;-61
2023/05/18 05:08:39;;;;;;;15.85;4.18;;;10.30;99.90;;;;;;5069060;28;20110;-61
2023/05/18 05:11:06;;;;;;;10.88;2.90;;;10.30;99.90;;;;;;5070427;28;20048;-61
2023/05/18 05:13:34;;;;;;;12.55;3.08;;;10.30;99.90;;;;;;5047400;28;20044;-61
2023/05/18 05:16:01;;;;;;;13.00;2.75;;;10.30;99.90;;;;;;5054804;28;20044;-60
2023/05/18 05:18:28;;;;;;;17.88;5.55;;;10.30;99.90;;;;;;5036987;28;20510;-61
2023/05/18 05:20:55;;;;;;;18.20;4.00;;;10.40;99.90;;;;;;5068247;28;20094;-61
2023/05/18 05:23:22;;;;;;;14.07;3.38;;;10.40;99.90;;;;;;5068871;28;20519;-61
2023/05/18 05:25:48;;;;;;;11.73;3.35;;;10.40;99.90;;;;;;5066885;28;20044;-61
2023/05/18 05:28:15;;;;;;;13.45;3.13;;;10.40;99.90;;;;;;5068654;28;20048;-60
2023/05/18 05:30:42;;;;;;;16.17;3.70;;;10.40;99.90;;;;;;5068483;28;20048;-60
2023/05/18 05:33:09;;;;;;;12.05;2.90;;;10.40;99.90;;;;;;5057194;28;20040;-61
2023/05/18 05:35:36;;;;;;;9.15;3.17;;;10.40;99.90;;;;;;5068535;28;20055;-60
2023/05/18 05:38:03;;;;;;;14.10;2.75;;;10.40;99.90;;;;;;5056736;28;20083;-60
2023/05/18 05:40:30;;;;;;;16.95;3.00;;;10.40;99.90;;;;;;5057040;28;20491;-61
2023/05/18 05:42:57;;;;;;;9.82;3.13;;;10.50;99.90;;;;;;5067743;28;20511;-61
2023/05/18 05:45:23;;;;;;;12.13;3.20;;;10.50;99.90;;;;;;5068412;28;20044;-61
2023/05/18 05:47:50;;;;;;;8.27;2.88;;;10.50;99.90;;;;;;5068295;28;20095;-61
2023/05/18 05:50:17;;;;;;;41.72;6.32;;;10.60;99.90;;;;;;5068741;28;20062;-61
2023/05/18 05:52:44;;;;;;;14.30;4.30;;;10.70;99.90;;;;;;5068028;28;20071;-60
2023/05/18 05:55:11;;;;;;;15.98;4.10;;;10.70;99.90;;;;;;5067826;28;20100;-61
2023/05/18 05:57:41;;;;;;;20.00;4.53;;;10.80;99.90;;;;;;5068091;28;20052;-61
2023/05/18 06:00:10;;;;;;;18.85;3.78;;;10.90;99.90;;;;;;5068108;28;20413;-60
2023/05/18 06:02:37;;;;;;;25.38;3.60;;;10.90;99.90;;;;;;5068068;28;20048;-61
2023/05/18 06:05:07;;;;;;;20.08;4.40;;;11.00;99.90;;;;;;5062139;28;20056;-60
2023/05/18 06:07:34;;;;;;;14.85;3.72;;;11.10;99.90;;;;;;5066083;28;20557;-62
2023/05/18 06:10:01;;;;;;;15.60;4.82;;;11.20;99.90;;;;;;5072477;28;20097;-61
2023/05/18 06:12:28;;;;;;;13.38;4.53;;;11.20;99.90;;;;;;5074911;28;20106;-60
2023/05/18 06:14:58;;;;;;;17.52;4.90;;;11.30;99.90;;;;;;5067311;28;20044;-61
2023/05/18 06:17:25;;;;;;;13.98;3.17;;;11.30;99.90;;;;;;5066590;28;20045;-60
2023/05/18 06:19:53;;;;;;;14.32;3.33;;;11.40;99.90;;;;;;5061598;28;20167;-60
2023/05/18 06:22:19;;;;;;;14.77;4.45;;;11.50;99.90;;;;;;5057713;28;20483;-59
2023/05/18 06:24:46;;;;;;;12.52;3.50;;;11.50;99.90;;;;;;5066981;28;20049;-60
2023/05/18 06:27:13;;;;;;;17.92;5.20;;;11.60;99.90;;;;;;5056771;28;20049;-59
2023/05/18 06:29:40;;;;;;;11.68;2.90;;;11.60;99.90;;;;;;5066976;28;20044;-60
2023/05/18 06:32:07;;;;;;;10.25;2.53;;;11.60;99.90;;;;;;5067989;28;20041;-59
2023/05/18 06:34:34;;;;;;;13.20;2.95;;;11.70;99.90;;;;;;5058506;28;20172;-60
2023/05/18 06:37:00;;;;;;;15.55;3.95;;;11.70;99.90;;;;;;5054283;28;20044;-59
2023/05/18 06:39:27;;;;;;;15.80;3.75;;;11.80;99.90;;;;;;5067379;28;20049;-60
2023/05/18 06:41:54;;;;;;;15.45;2.83;;;11.90;99.90;;;;;;5068229;28;20059;-60
2023/05/18 06:44:21;;;;;;;12.00;2.80;;;11.90;99.90;;;;;;5055214;28;20053;-61
2023/05/18 06:46:47;;;;;;;14.50;3.90;;;12.00;99.90;;;;;;5075382;28;20404;-61
2023/05/18 06:49:14;;;;;;;13.77;3.13;;;12.10;99.90;;;;;;4722411;28;10000089;-60
2023/05/18 06:51:42;;;;;;;26.77;4.20;;;12.20;99.90;;;;;;5068608;28;20110;-61
2023/05/18 06:54:09;;;;;;;14.75;2.75;;;12.20;99.90;;;;;;5068187;28;20044;-60
2023/05/18 06:56:36;;;;;;;14.13;3.20;;;12.30;99.90;;;;;;5066663;28;20044;-61
2023/05/18 06:59:03;;;;;;;14.68;3.70;;;12.30;99.90;;;;;;5061592;28;20044;-61
2023/05/18 07:01:30;;;;;;;17.38;3.40;;;12.40;99.90;;;;;;5064478;28;20048;-61
2023/05/18 07:03:56;;;;;;;19.13;3.50;;;12.50;99.90;;;;;;5064049;28;20203;-61
2023/05/18 07:06:23;;;;;;;12.57;3.10;;;12.60;99.90;;;;;;5055118;28;20048;-61
2023/05/18 07:08:50;;;;;;;14.73;3.95;;;12.60;99.90;;;;;;5038101;28;20507;-60
2023/05/18 07:11:17;;;;;;;15.32;3.90;;;12.60;99.90;;;;;;5066529;28;20453;-60
2023/05/18 07:13:43;;;;;;;13.07;4.88;;;12.60;99.90;;;;;;5066758;28;20084;-60
2023/05/18 07:16:10;;;;;;;12.93;4.88;;;12.60;99.90;;;;;;5057740;28;20052;-61
2023/05/18 07:18:37;;;;;;;15.88;4.70;;;12.60;99.90;;;;;;5066440;28;20048;-60
2023/05/18 07:21:04;;;;;;;16.15;2.13;;;12.60;99.90;;;;;;5054802;28;20041;-61
2023/05/18 07:23:31;;;;;;;14.10;2.90;;;12.60;99.90;;;;;;5063159;28;20133;-61
2023/05/18 07:25:58;;;;;;;12.23;3.42;;;12.70;99.90;;;;;;5065785;28;20032;-60
2023/05/18 07:28:25;;;;;;;13.52;2.83;;;12.80;99.90;;;;;;5066434;28;20491;-60
2023/05/18 07:30:52;;;;;;;14.80;2.90;;;12.80;99.90;;;;;;5067424;28;20097;-61
2023/05/18 07:33:18;;;;;;;9.95;2.97;;;12.90;99.90;;;;;;5066406;28;20052;-61
2023/05/18 07:35:45;;;;;;;11.45;2.28;;;13.00;99.90;;;;;;5066068;28;20132;-61
2023/05/18 07:38:12;;;;;;;7.80;2.42;;;13.10;99.90;;;;;;5066433;28;20048;-61
2023/05/18 07:40:39;;;;;;;9.38;2.13;;;13.20;99.90;;;;;;5066203;28;20067;-61
2023/05/18 07:43:06;;;;;;;19.08;2.70;;;13.30;99.90;;;;;;5065915;28;20056;-61
2023/05/18 07:45:32;;;;;;;10.32;2.30;;;13.30;99.90;;;;;;5052374;28;20132;-61
2023/05/18 07:48:00;;;;;;;14.73;3.35;;;13.40;99.90;;;;;;5065859;28;20049;-60
2023/05/18 07:50:28;;;;;;;11.82;2.58;;;13.40;99.90;;;;;;5066204;28;20478;-61
2023/05/18 07:52:55;;;;;;;9.95;2.65;;;13.50;99.90;;;;;;5056305;28;20044;-61
2023/05/18 07:55:22;;;;;;;10.00;2.08;;;13.50;99.90;;;;;;5055907;28;20048;-61
2023/05/18 07:57:49;;;;;;;11.20;2.38;;;13.50;99.90;;;;;;5065349;28;20048;-60
2023/05/18 08:00:16;;;;;;;15.57;2.50;;;13.50;99.90;;;;;;5065009;28;20048;-61
2023/05/18 08:02:44;;;;;;;10.75;2.35;;;13.60;99.90;;;;;;5055195;28;20101;-61
2023/05/18 08:05:11;;;;;;;19.85;2.67;;;13.80;99.90;;;;;;5065940;28;20056;-61
2023/05/18 08:07:37;;;;;;;10.85;2.60;;;13.90;99.90;;;;;;5065568;28;20407;-61
2023/05/18 08:10:05;;;;;;;11.35;2.58;;;13.90;99.90;;;;;;5066416;28;20121;-60
2023/05/18 08:12:31;;;;;;;9.75;2.78;;;13.80;99.90;;;;;;5060152;28;20099;-60
2023/05/18 08:14:58;;;;;;;15.85;2.90;;;13.90;99.90;;;;;;5065676;28;20087;-61
2023/05/18 08:17:25;;;;;;;14.00;2.90;;;14.00;99.90;;;;;;5066276;28;20507;-59
2023/05/18 08:19:53;;;;;;;13.82;2.58;;;14.10;99.90;;;;;;5065993;28;20491;-60
2023/05/18 08:22:20;;;;;;;13.77;2.53;;;14.20;99.90;;;;;;5063642;28;20056;-59
2023/05/18 08:24:47;;;;;;;8.18;2.30;;;14.20;99.90;;;;;;5068685;28;20143;-60
2023/05/18 08:27:13;;;;;;;11.43;2.60;;;14.20;99.90;;;;;;5066105;28;20102;-61
2023/05/18 08:29:40;;;;;;;10.32;2.67;;;14.20;99.90;;;;;;5065687;28;20048;-59
2023/05/18 08:32:07;;;;;;;12.07;2.28;;;14.30;99.90;;;;;;5068430;28;20037;-61
2023/05/18 08:34:34;;;;;;;9.45;2.30;;;14.30;99.90;;;;;;5055976;28;20083;-60
2023/05/18 08:37:01;;;;;;;10.43;2.22;;;14.50;99.90;;;;;;5069161;28;20044;-60
2023/05/18 08:39:30;;;;;;;8.85;2.45;;;14.60;99.90;;;;;;5069623;28;20048;-61
2023/05/18 08:42:10;;;;;;;8.57;2.42;;;14.60;99.90;;;;;;5069310;28;20044;-60
2023/05/18 08:45:13;;;;;;;12.10;3.38;;;14.80;99.90;;;;;;5075084;28;20048;-61
2023/05/18 08:47:40;;;;;;;10.40;2.95;;;14.90;99.90;;;;;;5062034;28;20037;-61
2023/05/18 08:50:12;;;;;;;21.75;3.05;;;14.90;99.90;;;;;;5069742;28;20040;-60
2023/05/18 08:52:42;;;;;;;9.30;2.45;;;15.00;99.90;;;;;;5079067;28;20604;-61
2023/05/18 08:55:09;;;;;;;12.35;2.67;;;15.00;99.90;;;;;;5058500;28;20059;-61
2023/05/18 08:57:38;;;;;;;9.57;2.75;;;14.90;99.90;;;;;;5078216;28;20071;-61
2023/05/18 09:00:06;;;;;;;17.75;3.70;;;15.00;99.90;;;;;;5069132;28;20040;-60
2023/05/18 09:02:33;;;;;;;9.85;3.95;;;15.00;99.90;;;;;;5069756;28;20129;-61
2023/05/18 09:05:00;;;;;;;13.65;3.63;;;15.10;99.90;;;;;;5056134;28;20056;-61
2023/05/18 09:07:27;;;;;;;10.82;3.22;;;15.30;99.90;;;;;;5057589;28;20055;-59
2023/05/18 09:09:54;;;;;;;14.20;3.50;;;15.30;99.90;;;;;;4716301;28;9999657;-59
2023/05/18 09:12:22;;;;;;;11.65;4.15;;;15.30;99.90;;;;;;5066604;28;20130;-60
2023/05/18 09:14:50;;;;;;;17.63;3.90;;;15.50;99.90;;;;;;5073477;28;20048;-60
2023/05/18 09:17:17;;;;;;;16.00;3.28;;;15.60;99.90;;;;;;5042117;28;20465;-60
2023/05/18 09:19:44;;;;;;;15.65;3.95;;;15.70;99.90;;;;;;5069391;28;20101;-60
2023/05/18 09:22:11;;;;;;;12.63;3.25;;;15.80;99.90;;;;;;5069378;28;20106;-60
2023/05/18 09:24:38;;;;;;;18.45;4.28;;;15.90;99.90;;;;;;5074205;28;20040;-60
2023/05/18 09:27:05;;;;;;;13.25;4.03;;;15.90;99.90;;;;;;5063313;28;20048;-62
2023/05/18 09:29:32;;;;;;;19.83;4.55;;;15.90;99.90;;;;;;5070036;28;20413;-61
2023/05/18 09:32:03;;;;;;;14.93;4.45;;;16.00;99.90;;;;;;5068041;28;20058;-60
2023/05/18 09:34:40;;;;;;;16.35;4.43;;;16.20;99.90;;;;;;5066085;28;20044;-60
2023/05/18 09:37:08;;;;;;;11.18;3.55;;;16.30;99.90;;;;;;5067925;28;20507;-60
2023/05/18 09:39:35;;;;;;;16.45;3.63;;;16.20;99.90;;;;;;5064312;28;20094;-60
2023/05/18 09:42:02;;;;;;;20.38;5.15;;;16.30;99.90;;;;;;5064486;28;20415;-61
2023/05/18 09:44:33;;;;;;;20.80;4.22;;;16.50;99.90;;;;;;5068191;28;20040;-61
2023/05/18 09:47:00;;;;;;;19.30;4.53;;;16.70;99.90;;;;;;5055320;28;20041;-61
2023/05/18 09:49:30;;;;;;;16.50;4.47;;;16.80;99.90;;;;;;5068492;28;20072;-60
2023/05/18 09:52:00;;;;;;;28.75;3.88;;;16.70;99.90;;;;;;5064493;28;20074;-61
2023/05/18 09:54:27;;;;;;;15.05;4.07;;;16.70;99.90;;;;;;5076268;28;20044;-61
2023/05/18 09:56:55;;;;;;;18.45;5.65;;;16.70;99.90;;;;;;5049769;28;20049;-61
2023/05/18 09:59:36;;;;;;;16.58;4.90;;;17.00;99.90;;;;;;5045550;28;20044;-60
2023/05/18 10:02:07;;;;;;;18.75;4.78;;;17.50;99.90;;;;;;5067852;28;20045;-61
2023/05/18 10:04:39;;;;;;;17.00;4.43;;;17.90;99.90;;;;;;5068719;28;20055;-59
2023/05/18 10:07:09;;;;;;;16.23;3.92;;;18.00;99.90;;;;;;5039937;28;20079;-60
2023/05/18 10:09:37;;;;;;;14.25;5.13;;;18.30;99.90;;;;;;5067996;28;20045;-60
2023/05/18 10:12:10;;;;;;;20.90;4.20;;;18.50;99.90;;;;;;5066565;28;20048;-61
2023/05/18 10:14:40;;;;;;;9.32;3.53;;;18.70;99.90;;;;;;5055373;28;20415;-61
2023/05/18 10:17:07;;;;;;;11.52;3.90;;;19.00;99.90;;;;;;5067400;28;20291;-61
2023/05/18 10:19:43;;;;;;;13.75;3.38;;;19.30;99.90;;;;;;5053762;28;20048;-61
2023/05/18 10:22:10;;;;;;;11.10;2.85;;;19.20;99.90;;;;;;5066328;28;20567;-61
2023/05/18 10:24:41;;;;;;;13.27;4.18;;;19.10;99.90;;;;;;5037221;28;20051;-62
2023/05/18 10:27:09;;;;;;;15.30;3.35;;;19.40;99.90;;;;;;5054134;28;20041;-59
2023/05/18 10:29:36;;;;;;;13.70;4.47;;;19.70;99.90;;;;;;5065668;28;20044;-61
2023/05/18 10:32:03;;;;;;;25.92;4.30;;;20.00;99.90;;;;;;5066524;28;20075;-62
2023/05/18 10:34:33;;;;;;;11.13;3.97;;;20.00;99.90;;;;;;5066422;28;20364;-62
2023/05/18 10:37:03;;;;;;;18.10;3.35;;;20.00;99.90;;;;;;5066762;28;20534;-61
2023/05/18 10:39:31;;;;;;;9.43;3.42;;;20.10;99.90;;;;;;5067115;28;20052;-61
2023/05/18 10:41:58;;;;;;;9.52;2.78;;;20.30;99.90;;;;;;5064139;28;20449;-60
2023/05/18 10:44:25;;;;;;;14.98;3.45;;;20.50;99.70;;;;;;5069933;28;20052;-61
2023/05/18 10:46:52;;;;;;;12.38;3.30;;;20.30;99.20;;;;;;5050385;28;20032;-61
2023/05/18 10:49:24;;;;;;;19.38;3.63;;;20.00;99.30;;;;;;5061703;28;20048;-61
2023/05/18 10:51:54;;;;;;;18.73;3.75;;;19.70;98.80;;;;;;5052214;28;20044;-61
2023/05/18 10:54:22;;;;;;;13.40;2.55;;;19.40;99.90;;;;;;5060606;28;20102;-61
2023/05/18 10:56:52;;;;;;;13.15;2.97;;;19.20;99.90;;;;;;5066457;28;20079;-61
2023/05/18 10:59:19;;;;;;;11.60;2.35;;;19.10;99.90;;;;;;5053847;28;20113;-61
2023/05/18 11:01:46;;;;;;;12.32;2.55;;;19.00;99.50;;;;;;5059037;28;20045;-61
2023/05/18 11:04:13;;;;;;;14.43;2.65;;;18.80;99.50;;;;;;5072086;28;20687;-61
2023/05/18 11:06:40;;;;;;;18.63;3.75;;;18.90;99.80;;;;;;5073841;28;20419;-61
2023/05/18 11:09:06;;;;;;;16.05;3.15;;;18.90;99.90;;;;;;5066753;28;20044;-60
2023/05/18 11:11:50;;;;;;;22.70;4.03;;;19.00;99.90;;;;;;5071486;28;20098;-59
2023/05/18 11:14:26;;;;;;;12.88;4.28;;;19.00;99.40;;;;;;5055073;28;20513;-60
2023/05/18 11:16:53;;;;;;;12.27;4.78;;;19.00;99.90;;;;;;5030542;28;20048;-60
2023/05/18 11:19:23;;;;;;;14.15;3.03;;;19.00;99.90;;;;;;5066860;28;20090;-60
2023/05/18 11:21:51;;;;;;;15.63;3.30;;;19.00;99.90;;;;;;5054213;28;20067;-61
2023/05/18 11:24:20;;;;;;;17.33;4.40;;;19.10;99.90;;;;;;5065970;28;20056;-61
2023/05/18 11:26:52;;;;;;;19.40;4.07;;;19.00;99.50;;;;;;5067091;28;20117;-61
2023/05/18 11:29:40;;;;;;;12.38;3.97;;;18.90;99.90;;;;;;5058350;28;20080;-61
2023/05/18 11:32:36;;;;;;;13.63;3.13;;;19.00;99.90;;;;;;5071164;28;20080;-61
2023/05/18 11:35:09;;;;;;;11.20;3.13;;;19.10;98.70;;;;;;5052087;28;20059;-61
2023/05/18 11:37:43;;;;;;;9.63;3.25;;;19.00;99.90;;;;;;5066991;28;20040;-61
2023/05/18 11:40:12;;;;;;;10.02;2.55;;;19.10;99.90;;;;;;5066494;28;20053;-61
2023/05/18 11:42:39;;;;;;;12.10;3.25;;;19.20;99.90;;;;;;5066773;28;20487;-61
2023/05/18 11:45:09;;;;;;;7.85;2.40;;;19.10;99.90;;;;;;5065772;28;20082;-62
2023/05/18 11:47:38;;;;;;;17.92;2.88;;;19.10;99.90;;;;;;5060120;28;20067;-60
2023/05/18 11:50:07;;;;;;;16.77;3.05;;;19.10;98.80;;;;;;5066179;28;20055;-60
2023/05/18 11:52:47;;;;;;;11.82;2.97;;;19.00;99.80;;;;;;5060669;28;20040;-61
2023/05/18 11:55:15;;;;;;;10.07;2.53;;;19.10;97.90;;;;;;5066170;28;20411;-61
2023/05/18 11:57:44;;;;;;;13.15;2.70;;;19.10;99.80;;;;;;5066475;28;20037;-61
2023/05/18 12:00:11;;;;;;;12.00;2.65;;;19.30;99.00;;;;;;4708875;28;10000145;-59
2023/05/18 12:02:41;;;;;;;14.45;3.45;;;19.40;99.50;;;;;;5063090;28;20117;-61
2023/05/18 12:05:09;;;;;;;12.13;3.78;;;19.50;99.50;;;;;;5049054;28;20086;-61
2023/05/18 12:07:37;;;;;;;13.88;3.92;;;19.50;99.20;;;;;;5066681;28;20135;-61
2023/05/18 12:10:07;;;;;;;13.27;3.75;;;19.50;98.80;;;;;;5067663;28;20136;-62
2023/05/18 12:12:34;;;;;;;10.82;2.78;;;19.60;99.00;;;;;;5067356;28;20059;-61
2023/05/18 12:15:02;;;;;;;19.85;5.05;;;19.60;98.70;;;;;;5067409;28;20044;-61
2023/05/18 12:17:48;;;;;;;13.07;2.60;;;19.70;98.50;;;;;;5067325;28;20101;-61
2023/05/18 12:20:23;;;;;;;10.68;3.00;;;19.50;97.90;;;;;;5039137;28;20060;-61
2023/05/18 12:22:52;;;;;;;10.00;3.67;;;19.60;98.50;;;;;;5066797;28;20063;-61
2023/05/18 12:25:20;;;;;;;8.73;2.47;;;19.70;98.50;;;;;;5038011;28;20055;-61
2023/05/18 12:27:47;;;;;;;12.40;3.10;;;19.70;98.90;;;;;;5067078;28;20109;-61
2023/05/18 12:30:14;;;;;;;10.68;3.88;;;19.90;98.60;;;;;;5067123;28;20098;-61
2023/05/18 12:32:48;;;;;;;13.30;3.10;;;20.00;98.70;;;;;;5067491;28;20630;-61
2023/05/18 12:35:28;;;;;;;9.90;3.25;;;20.00;97.70;;;;;;5052632;28;20462;-61
2023/05/18 12:37:56;;;;;;;22.05;4.40;;;19.90;96.60;;;;;;5063260;28;20048;-61
2023/05/18 12:40:23;;;;;;;13.48;3.38;;;19.60;98.10;;;;;;5062298;28;20044;-61
2023/05/18 12:43:01;;;;;;;17.67;3.65;;;19.70;98.40;;;;;;5066372;28;20041;-61
2023/05/18 12:45:33;;;;;;;13.18;3.30;;;19.90;98.00;;;;;;5066828;28;20059;-60